sensor_id;sensor_type;location;lat;lon;timestamp;P1;durP1;ratioP1;P2;durP2;ratioP2
64094;SDS011;50353;51.420;5.682;2022-11-20T00:01:29;15.75;;;8.98;;
64094;SDS011;50353;51.420;5.682;2022-11-20T00:03:55;15.75;;;9.25;;
64094;SDS011;50353;51.420;5.682;2022-11-20T00:06:22;14.50;;;8.40;;
64094;SDS011;50353;51.420;5.682;2022-11-20T00:08:48;13.20;;;8.68;;
64094;SDS011;50353;51.420;5.682;2022-11-20T00:11:15;13.40;;;8.90;;
64094;SDS011;50353;51.420;5.682;2022-11-20T00:13:45;13.80;;;8.48;;
64094;SDS011;50353;51.420;5.682;2022-11-20T00:16:12;17.92;;;9.05;;
64094;SDS011;50353;51.420;5.682;2022-11-20T00:18:40;15.30;;;8.95;;
64094;SDS011;50353;51.420;5.682;2022-11-20T00:21:09;15.40;;;8.57;;
64094;SDS011;50353;51.420;5.682;2022-11-20T00:23:36;13.00;;;8.32;;
64094;SDS011;50353;51.420;5.682;2022-11-20T00:26:05;13.98;;;8.70;;
64094;SDS011;50353;51.420;5.682;2022-11-20T00:28:31;13.70;;;8.88;;
64094;SDS011;50353;51.420;5.682;2022-11-20T00:31:03;12.68;;;8.57;;
64094;SDS011;50353;51.420;5.682;2022-11-20T00:33:31;13.50;;;8.38;;
64094;SDS011;50353;51.420;5.682;2022-11-20T00:36:01;13.45;;;8.38;;
64094;SDS011;50353;51.420;5.682;2022-11-20T00:38:27;12.40;;;7.85;;
64094;SDS011;50353;51.420;5.682;2022-11-20T00:40:59;13.15;;;8.52;;
64094;SDS011;50353;51.420;5.682;2022-11-20T00:43:26;15.48;;;9.02;;
64094;SDS011;50353;51.420;5.682;2022-11-20T00:46:02;13.60;;;9.02;;
64094;SDS011;50353;51.420;5.682;2022-11-20T00:48:34;15.32;;;9.10;;
64094;SDS011;50353;51.420;5.682;2022-11-20T00:51:00;13.43;;;8.60;;
64094;SDS011;50353;51.420;5.682;2022-11-20T00:53:25;15.98;;;8.40;;
64094;SDS011;50353;51.420;5.682;2022-11-20T00:55:54;14.70;;;8.55;;
64094;SDS011;50353;51.420;5.682;2022-11-20T00:58:21;13.98;;;9.20;;
64094;SDS011;50353;51.420;5.682;2022-11-20T01:00:46;14.43;;;8.57;;
64094;SDS011;50353;51.420;5.682;2022-11-20T01:03:12;13.65;;;8.65;;
64094;SDS011;50353;51.420;5.682;2022-11-20T01:05:37;13.95;;;8.75;;
64094;SDS011;50353;51.420;5.682;2022-11-20T01:08:03;14.75;;;9.40;;
64094;SDS011;50353;51.420;5.682;2022-11-20T01:10:28;15.93;;;8.98;;
64094;SDS011;50353;51.420;5.682;2022-11-20T01:12:54;14.30;;;8.82;;
64094;SDS011;50353;51.420;5.682;2022-11-20T01:15:39;13.40;;;8.40;;
64094;SDS011;50353;51.420;5.682;2022-11-20T01:18:04;16.63;;;8.57;;
64094;SDS011;50353;51.420;5.682;2022-11-20T01:20:30;15.40;;;9.13;;
64094;SDS011;50353;51.420;5.682;2022-11-20T01:22:58;15.35;;;9.23;;
64094;SDS011;50353;51.420;5.682;2022-11-20T01:25:24;13.85;;;9.07;;
64094;SDS011;50353;51.420;5.682;2022-11-20T01:27:49;16.30;;;10.02;;
64094;SDS011;50353;51.420;5.682;2022-11-20T01:30:14;14.68;;;9.63;;
64094;SDS011;50353;51.420;5.682;2022-11-20T01:32:40;16.45;;;9.98;;
64094;SDS011;50353;51.420;5.682;2022-11-20T01:35:05;16.88;;;10.32;;
64094;SDS011;50353;51.420;5.682;2022-11-20T01:37:30;15.65;;;9.75;;
64094;SDS011;50353;51.420;5.682;2022-11-20T01:39:55;16.40;;;9.32;;
64094;SDS011;50353;51.420;5.682;2022-11-20T01:42:21;17.27;;;10.05;;
64094;SDS011;50353;51.420;5.682;2022-11-20T01:48:07;14.68;;;9.10;;
64094;SDS011;50353;51.420;5.682;2022-11-20T01:50:33;15.48;;;10.07;;
64094;SDS011;50353;51.420;5.682;2022-11-20T01:53:00;15.38;;;10.05;;
64094;SDS011;50353;51.420;5.682;2022-11-20T01:55:31;16.90;;;9.95;;
64094;SDS011;50353;51.420;5.682;2022-11-20T01:57:59;16.88;;;10.15;;
64094;SDS011;50353;51.420;5.682;2022-11-20T02:00:26;22.63;;;11.00;;
64094;SDS011;50353;51.420;5.682;2022-11-20T02:02:52;20.25;;;11.57;;
64094;SDS011;50353;51.420;5.682;2022-11-20T02:05:23;15.77;;;9.90;;
64094;SDS011;50353;51.420;5.682;2022-11-20T02:08:06;17.75;;;10.38;;
64094;SDS011;50353;51.420;5.682;2022-11-20T02:10:32;16.45;;;9.98;;
64094;SDS011;50353;51.420;5.682;2022-11-20T02:12:58;17.42;;;9.90;;
64094;SDS011;50353;51.420;5.682;2022-11-20T02:15:42;17.05;;;10.27;;
64094;SDS011;50353;51.420;5.682;2022-11-20T02:18:09;22.05;;;11.13;;
64094;SDS011;50353;51.420;5.682;2022-11-20T02:20:36;18.75;;;10.18;;
64094;SDS011;50353;51.420;5.682;2022-11-20T02:23:12;18.58;;;11.23;;
64094;SDS011;50353;51.420;5.682;2022-11-20T02:25:42;17.45;;;10.38;;
64094;SDS011;50353;51.420;5.682;2022-11-20T02:28:08;15.55;;;9.43;;
64094;SDS011;50353;51.420;5.682;2022-11-20T02:30:34;18.20;;;9.90;;
64094;SDS011;50353;51.420;5.682;2022-11-20T02:32:59;16.98;;;10.10;;
64094;SDS011;50353;51.420;5.682;2022-11-20T02:37:50;17.88;;;10.32;;
64094;SDS011;50353;51.420;5.682;2022-11-20T02:40:19;18.85;;;11.23;;
64094;SDS011;50353;51.420;5.682;2022-11-20T02:42:44;17.27;;;10.82;;
64094;SDS011;50353;51.420;5.682;2022-11-20T02:45:10;20.17;;;11.55;;
64094;SDS011;50353;51.420;5.682;2022-11-20T02:47:36;21.23;;;11.40;;
64094;SDS011;50353;51.420;5.682;2022-11-20T02:50:02;18.15;;;10.73;;
64094;SDS011;50353;51.420;5.682;2022-11-20T02:52:28;18.25;;;11.52;;
64094;SDS011;50353;51.420;5.682;2022-11-20T02:54:53;22.92;;;11.60;;
64094;SDS011;50353;51.420;5.682;2022-11-20T02:57:19;21.58;;;11.35;;
64094;SDS011;50353;51.420;5.682;2022-11-20T02:59:44;19.80;;;11.15;;
64094;SDS011;50353;51.420;5.682;2022-11-20T03:02:09;19.08;;;11.13;;
64094;SDS011;50353;51.420;5.682;2022-11-20T03:04:35;19.02;;;11.85;;
64094;SDS011;50353;51.420;5.682;2022-11-20T03:07:00;22.30;;;11.93;;
64094;SDS011;50353;51.420;5.682;2022-11-20T03:09:25;19.50;;;11.77;;
64094;SDS011;50353;51.420;5.682;2022-11-20T03:11:51;18.65;;;10.73;;
64094;SDS011;50353;51.420;5.682;2022-11-20T03:14:16;17.67;;;10.85;;
64094;SDS011;50353;51.420;5.682;2022-11-20T03:16:41;18.33;;;11.50;;
64094;SDS011;50353;51.420;5.682;2022-11-20T03:19:07;18.27;;;11.52;;
64094;SDS011;50353;51.420;5.682;2022-11-20T03:21:32;17.25;;;9.85;;
64094;SDS011;50353;51.420;5.682;2022-11-20T03:23:59;20.60;;;11.00;;
64094;SDS011;50353;51.420;5.682;2022-11-20T03:26:24;17.58;;;10.75;;
64094;SDS011;50353;51.420;5.682;2022-11-20T03:28:55;17.55;;;11.68;;
64094;SDS011;50353;51.420;5.682;2022-11-20T03:31:25;18.77;;;11.57;;
64094;SDS011;50353;51.420;5.682;2022-11-20T03:33:53;19.08;;;11.55;;
64094;SDS011;50353;51.420;5.682;2022-11-20T03:36:19;18.88;;;10.65;;
64094;SDS011;50353;51.420;5.682;2022-11-20T03:38:45;19.33;;;11.55;;
64094;SDS011;50353;51.420;5.682;2022-11-20T03:41:12;18.70;;;11.10;;
64094;SDS011;50353;51.420;5.682;2022-11-20T03:43:39;21.77;;;11.32;;
64094;SDS011;50353;51.420;5.682;2022-11-20T03:46:05;18.98;;;11.90;;
64094;SDS011;50353;51.420;5.682;2022-11-20T03:48:31;21.48;;;10.77;;
64094;SDS011;50353;51.420;5.682;2022-11-20T03:51:06;20.30;;;11.35;;
64094;SDS011;50353;51.420;5.682;2022-11-20T03:53:42;18.40;;;11.00;;
64094;SDS011;50353;51.420;5.682;2022-11-20T03:58:35;18.00;;;10.82;;
64094;SDS011;50353;51.420;5.682;2022-11-20T04:01:08;18.55;;;11.15;;
64094;SDS011;50353;51.420;5.682;2022-11-20T04:03:35;18.25;;;11.73;;
64094;SDS011;50353;51.420;5.682;2022-11-20T04:06:02;20.98;;;11.45;;
64094;SDS011;50353;51.420;5.682;2022-11-20T04:08:29;18.58;;;11.35;;
64094;SDS011;50353;51.420;5.682;2022-11-20T04:10:55;19.95;;;12.38;;
64094;SDS011;50353;51.420;5.682;2022-11-20T04:13:21;21.98;;;11.48;;
64094;SDS011;50353;51.420;5.682;2022-11-20T04:15:46;19.40;;;11.40;;
64094;SDS011;50353;51.420;5.682;2022-11-20T04:18:11;17.65;;;10.60;;
64094;SDS011;50353;51.420;5.682;2022-11-20T04:20:36;18.35;;;10.93;;
64094;SDS011;50353;51.420;5.682;2022-11-20T04:23:02;19.17;;;11.60;;
64094;SDS011;50353;51.420;5.682;2022-11-20T04:25:27;21.17;;;11.23;;
64094;SDS011;50353;51.420;5.682;2022-11-20T04:27:52;17.88;;;11.25;;
64094;SDS011;50353;51.420;5.682;2022-11-20T04:30:17;18.10;;;11.73;;
64094;SDS011;50353;51.420;5.682;2022-11-20T04:32:43;21.15;;;11.90;;
64094;SDS011;50353;51.420;5.682;2022-11-20T04:35:08;18.02;;;11.30;;
64094;SDS011;50353;51.420;5.682;2022-11-20T04:37:33;18.23;;;11.00;;
64094;SDS011;50353;51.420;5.682;2022-11-20T04:39:59;21.90;;;11.35;;
64094;SDS011;50353;51.420;5.682;2022-11-20T04:42:24;19.08;;;11.30;;
64094;SDS011;50353;51.420;5.682;2022-11-20T04:44:55;17.48;;;10.68;;
64094;SDS011;50353;51.420;5.682;2022-11-20T04:47:21;17.42;;;11.50;;
64094;SDS011;50353;51.420;5.682;2022-11-20T04:49:47;18.38;;;11.32;;
64094;SDS011;50353;51.420;5.682;2022-11-20T04:52:12;17.92;;;10.93;;
64094;SDS011;50353;51.420;5.682;2022-11-20T04:54:38;20.13;;;10.98;;
64094;SDS011;50353;51.420;5.682;2022-11-20T04:57:03;18.15;;;10.73;;
64094;SDS011;50353;51.420;5.682;2022-11-20T04:59:29;19.90;;;11.35;;
64094;SDS011;50353;51.420;5.682;2022-11-20T05:01:54;16.98;;;10.32;;
64094;SDS011;50353;51.420;5.682;2022-11-20T05:04:19;17.10;;;10.70;;
64094;SDS011;50353;51.420;5.682;2022-11-20T05:06:45;18.73;;;10.45;;
64094;SDS011;50353;51.420;5.682;2022-11-20T05:09:10;17.88;;;10.63;;
64094;SDS011;50353;51.420;5.682;2022-11-20T05:11:36;19.27;;;11.50;;
64094;SDS011;50353;51.420;5.682;2022-11-20T05:14:01;18.60;;;10.98;;
64094;SDS011;50353;51.420;5.682;2022-11-20T05:16:27;20.15;;;11.38;;
64094;SDS011;50353;51.420;5.682;2022-11-20T05:18:52;15.68;;;10.63;;
64094;SDS011;50353;51.420;5.682;2022-11-20T05:21:19;17.88;;;11.02;;
64094;SDS011;50353;51.420;5.682;2022-11-20T05:23:45;19.55;;;11.25;;
64094;SDS011;50353;51.420;5.682;2022-11-20T05:26:15;18.52;;;11.52;;
64094;SDS011;50353;51.420;5.682;2022-11-20T05:28:42;20.90;;;11.13;;
64094;SDS011;50353;51.420;5.682;2022-11-20T05:31:09;19.10;;;11.02;;
64094;SDS011;50353;51.420;5.682;2022-11-20T05:33:40;19.20;;;11.07;;
64094;SDS011;50353;51.420;5.682;2022-11-20T05:36:06;18.52;;;10.85;;
64094;SDS011;50353;51.420;5.682;2022-11-20T05:38:32;19.30;;;11.13;;
64094;SDS011;50353;51.420;5.682;2022-11-20T05:41:15;20.13;;;10.65;;
64094;SDS011;50353;51.420;5.682;2022-11-20T05:43:42;18.02;;;11.60;;
64094;SDS011;50353;51.420;5.682;2022-11-20T05:46:09;19.00;;;10.55;;
64094;SDS011;50353;51.420;5.682;2022-11-20T05:48:37;17.40;;;10.43;;
64094;SDS011;50353;51.420;5.682;2022-11-20T05:51:03;17.98;;;10.50;;
64094;SDS011;50353;51.420;5.682;2022-11-20T05:53:34;18.75;;;11.00;;
64094;SDS011;50353;51.420;5.682;2022-11-20T05:56:01;17.08;;;10.10;;
64094;SDS011;50353;51.420;5.682;2022-11-20T05:58:29;17.58;;;11.18;;
64094;SDS011;50353;51.420;5.682;2022-11-20T06:01:02;24.17;;;11.57;;
64094;SDS011;50353;51.420;5.682;2022-11-20T06:03:38;16.98;;;10.90;;
64094;SDS011;50353;51.420;5.682;2022-11-20T06:06:05;18.67;;;11.35;;
64094;SDS011;50353;51.420;5.682;2022-11-20T06:08:31;17.50;;;10.48;;
64094;SDS011;50353;51.420;5.682;2022-11-20T06:10:57;19.60;;;11.80;;
64094;SDS011;50353;51.420;5.682;2022-11-20T06:13:22;20.08;;;12.32;;
64094;SDS011;50353;51.420;5.682;2022-11-20T06:15:49;19.60;;;11.32;;
64094;SDS011;50353;51.420;5.682;2022-11-20T06:18:15;21.73;;;12.25;;
64094;SDS011;50353;51.420;5.682;2022-11-20T06:20:40;23.75;;;11.95;;
64094;SDS011;50353;51.420;5.682;2022-11-20T06:23:05;17.98;;;11.68;;
64094;SDS011;50353;51.420;5.682;2022-11-20T06:25:31;19.13;;;11.73;;
64094;SDS011;50353;51.420;5.682;2022-11-20T06:27:56;25.73;;;12.70;;
64094;SDS011;50353;51.420;5.682;2022-11-20T06:30:21;21.02;;;11.48;;
64094;SDS011;50353;51.420;5.682;2022-11-20T06:32:46;21.77;;;11.90;;
64094;SDS011;50353;51.420;5.682;2022-11-20T06:35:12;23.35;;;12.00;;
64094;SDS011;50353;51.420;5.682;2022-11-20T06:37:37;18.63;;;12.35;;
64094;SDS011;50353;51.420;5.682;2022-11-20T06:40:02;19.63;;;12.00;;
64094;SDS011;50353;51.420;5.682;2022-11-20T06:42:28;19.50;;;11.65;;
64094;SDS011;50353;51.420;5.682;2022-11-20T06:44:53;22.20;;;12.50;;
64094;SDS011;50353;51.420;5.682;2022-11-20T06:47:18;19.30;;;11.88;;
64094;SDS011;50353;51.420;5.682;2022-11-20T06:49:44;18.33;;;12.25;;
64094;SDS011;50353;51.420;5.682;2022-11-20T06:52:09;19.58;;;12.20;;
64094;SDS011;50353;51.420;5.682;2022-11-20T06:54:34;25.42;;;12.27;;
64094;SDS011;50353;51.420;5.682;2022-11-20T06:56:59;23.45;;;13.38;;
64094;SDS011;50353;51.420;5.682;2022-11-20T06:59:25;22.25;;;12.45;;
64094;SDS011;50353;51.420;5.682;2022-11-20T07:01:50;19.48;;;12.55;;
64094;SDS011;50353;51.420;5.682;2022-11-20T07:04:15;18.38;;;12.43;;
64094;SDS011;50353;51.420;5.682;2022-11-20T07:06:40;22.85;;;12.60;;
64094;SDS011;50353;51.420;5.682;2022-11-20T07:09:06;19.45;;;12.57;;
64094;SDS011;50353;51.420;5.682;2022-11-20T07:11:31;21.38;;;12.77;;
64094;SDS011;50353;51.420;5.682;2022-11-20T07:13:56;22.98;;;13.18;;
64094;SDS011;50353;51.420;5.682;2022-11-20T07:16:22;21.38;;;12.35;;
64094;SDS011;50353;51.420;5.682;2022-11-20T07:18:47;20.52;;;12.55;;
64094;SDS011;50353;51.420;5.682;2022-11-20T07:21:12;21.55;;;12.90;;
64094;SDS011;50353;51.420;5.682;2022-11-20T07:23:37;23.73;;;13.50;;
64094;SDS011;50353;51.420;5.682;2022-11-20T07:26:07;22.38;;;13.18;;
64094;SDS011;50353;51.420;5.682;2022-11-20T07:28:33;22.83;;;12.80;;
64094;SDS011;50353;51.420;5.682;2022-11-20T07:30:59;23.35;;;13.90;;
64094;SDS011;50353;51.420;5.682;2022-11-20T07:33:24;24.90;;;13.75;;
64094;SDS011;50353;51.420;5.682;2022-11-20T07:35:49;26.58;;;13.68;;
64094;SDS011;50353;51.420;5.682;2022-11-20T07:38:15;23.95;;;13.55;;
64094;SDS011;50353;51.420;5.682;2022-11-20T07:40:40;25.30;;;13.57;;
64094;SDS011;50353;51.420;5.682;2022-11-20T07:43:05;22.13;;;13.35;;
64094;SDS011;50353;51.420;5.682;2022-11-20T07:45:31;25.85;;;13.77;;
64094;SDS011;50353;51.420;5.682;2022-11-20T07:47:56;22.98;;;13.85;;
64094;SDS011;50353;51.420;5.682;2022-11-20T07:50:21;22.58;;;12.80;;
64094;SDS011;50353;51.420;5.682;2022-11-20T07:52:46;21.13;;;13.15;;
64094;SDS011;50353;51.420;5.682;2022-11-20T07:55:12;25.17;;;13.18;;
64094;SDS011;50353;51.420;5.682;2022-11-20T07:57:37;22.90;;;13.38;;
64094;SDS011;50353;51.420;5.682;2022-11-20T08:00:03;22.05;;;13.43;;
64094;SDS011;50353;51.420;5.682;2022-11-20T08:02:31;24.50;;;14.30;;
64094;SDS011;50353;51.420;5.682;2022-11-20T08:04:57;22.63;;;13.43;;
64094;SDS011;50353;51.420;5.682;2022-11-20T08:07:22;25.63;;;13.63;;
64094;SDS011;50353;51.420;5.682;2022-11-20T08:09:47;26.23;;;14.05;;
64094;SDS011;50353;51.420;5.682;2022-11-20T08:12:19;23.80;;;14.23;;
64094;SDS011;50353;51.420;5.682;2022-11-20T08:15:04;20.25;;;12.40;;
64094;SDS011;50353;51.420;5.682;2022-11-20T08:17:30;23.95;;;11.38;;
64094;SDS011;50353;51.420;5.682;2022-11-20T08:19:56;22.95;;;13.63;;
64094;SDS011;50353;51.420;5.682;2022-11-20T08:22:21;23.45;;;13.00;;
64094;SDS011;50353;51.420;5.682;2022-11-20T08:24:47;24.75;;;14.65;;
64094;SDS011;50353;51.420;5.682;2022-11-20T08:27:13;24.30;;;13.57;;
64094;SDS011;50353;51.420;5.682;2022-11-20T08:29:38;29.95;;;15.88;;
64094;SDS011;50353;51.420;5.682;2022-11-20T08:32:04;30.60;;;15.77;;
64094;SDS011;50353;51.420;5.682;2022-11-20T08:34:29;25.05;;;15.80;;
64094;SDS011;50353;51.420;5.682;2022-11-20T08:36:54;24.65;;;14.73;;
64094;SDS011;50353;51.420;5.682;2022-11-20T08:39:20;28.50;;;15.88;;
64094;SDS011;50353;51.420;5.682;2022-11-20T08:41:45;26.80;;;15.05;;
64094;SDS011;50353;51.420;5.682;2022-11-20T08:44:10;34.65;;;15.50;;
64094;SDS011;50353;51.420;5.682;2022-11-20T08:46:36;27.58;;;14.85;;
64094;SDS011;50353;51.420;5.682;2022-11-20T08:49:04;26.70;;;15.23;;
64094;SDS011;50353;51.420;5.682;2022-11-20T08:53:56;25.15;;;14.73;;
64094;SDS011;50353;51.420;5.682;2022-11-20T08:56:21;31.25;;;16.00;;
64094;SDS011;50353;51.420;5.682;2022-11-20T08:58:46;28.67;;;14.98;;
64094;SDS011;50353;51.420;5.682;2022-11-20T09:01:12;27.90;;;14.60;;
64094;SDS011;50353;51.420;5.682;2022-11-20T09:03:37;23.30;;;13.75;;
64094;SDS011;50353;51.420;5.682;2022-11-20T09:06:04;23.08;;;15.20;;
64094;SDS011;50353;51.420;5.682;2022-11-20T09:08:31;27.88;;;15.52;;
64094;SDS011;50353;51.420;5.682;2022-11-20T09:10:57;27.10;;;15.38;;
64094;SDS011;50353;51.420;5.682;2022-11-20T09:13:23;25.83;;;13.45;;
64094;SDS011;50353;51.420;5.682;2022-11-20T09:16:00;24.85;;;12.80;;
64094;SDS011;50353;51.420;5.682;2022-11-20T09:20:56;26.60;;;14.35;;
64094;SDS011;50353;51.420;5.682;2022-11-20T09:23:23;28.10;;;15.43;;
64094;SDS011;50353;51.420;5.682;2022-11-20T09:25:48;31.95;;;16.58;;
64094;SDS011;50353;51.420;5.682;2022-11-20T09:28:13;31.25;;;17.25;;
64094;SDS011;50353;51.420;5.682;2022-11-20T09:30:39;38.95;;;18.23;;
64094;SDS011;50353;51.420;5.682;2022-11-20T09:33:04;35.40;;;16.90;;
64094;SDS011;50353;51.420;5.682;2022-11-20T09:35:30;43.03;;;18.97;;
64094;SDS011;50353;51.420;5.682;2022-11-20T09:37:56;31.58;;;15.88;;
64094;SDS011;50353;51.420;5.682;2022-11-20T09:40:22;33.30;;;15.75;;
64094;SDS011;50353;51.420;5.682;2022-11-20T09:48:17;55.38;;;22.73;;
64094;SDS011;50353;51.420;5.682;2022-11-20T09:50:51;101.40;;;42.38;;
64094;SDS011;50353;51.420;5.682;2022-11-20T09:56:06;53.42;;;21.48;;
64094;SDS011;50353;51.420;5.682;2022-11-20T09:58:39;60.40;;;22.63;;
64094;SDS011;50353;51.420;5.682;2022-11-20T10:01:26;51.22;;;22.92;;
64094;SDS011;50353;51.420;5.682;2022-11-20T10:03:56;73.40;;;33.20;;
64094;SDS011;50353;51.420;5.682;2022-11-20T10:06:32;51.42;;;22.67;;
64094;SDS011;50353;51.420;5.682;2022-11-20T10:25:48;49.25;;;21.88;;
64094;SDS011;50353;51.420;5.682;2022-11-20T10:28:24;59.03;;;23.23;;
64094;SDS011;50353;51.420;5.682;2022-11-20T10:31:00;58.50;;;25.08;;
64094;SDS011;50353;51.420;5.682;2022-11-20T10:33:31;47.97;;;23.33;;
64094;SDS011;50353;51.420;5.682;2022-11-20T10:41:27;62.40;;;28.95;;
64094;SDS011;50353;51.420;5.682;2022-11-20T10:44:05;217.30;;;106.03;;
64094;SDS011;50353;51.420;5.682;2022-11-20T10:49:41;57.38;;;25.60;;
64094;SDS011;50353;51.420;5.682;2022-11-20T11:02:47;61.03;;;24.52;;
64094;SDS011;50353;51.420;5.682;2022-11-20T11:07:48;54.60;;;23.25;;
64094;SDS011;50353;51.420;5.682;2022-11-20T11:10:16;68.13;;;26.63;;
64094;SDS011;50353;51.420;5.682;2022-11-20T11:12:45;61.65;;;26.52;;
64094;SDS011;50353;51.420;5.682;2022-11-20T11:15:29;68.78;;;29.25;;
64094;SDS011;50353;51.420;5.682;2022-11-20T11:18:02;57.53;;;26.50;;
64094;SDS011;50353;51.420;5.682;2022-11-20T11:20:27;60.30;;;27.27;;
64094;SDS011;50353;51.420;5.682;2022-11-20T11:22:54;55.05;;;25.63;;
64094;SDS011;50353;51.420;5.682;2022-11-20T11:25:30;56.58;;;25.60;;
64094;SDS011;50353;51.420;5.682;2022-11-20T11:28:05;56.38;;;25.60;;
64094;SDS011;50353;51.420;5.682;2022-11-20T11:30:45;53.50;;;25.25;;
64094;SDS011;50353;51.420;5.682;2022-11-20T11:36:17;53.75;;;23.35;;
64094;SDS011;50353;51.420;5.682;2022-11-20T11:38:48;45.83;;;22.55;;
64094;SDS011;50353;51.420;5.682;2022-11-20T11:41:18;48.75;;;24.23;;
64094;SDS011;50353;51.420;5.682;2022-11-20T11:43:51;49.55;;;24.45;;
64094;SDS011;50353;51.420;5.682;2022-11-20T11:46:54;54.70;;;24.13;;
64094;SDS011;50353;51.420;5.682;2022-11-20T11:49:21;51.92;;;23.13;;
64094;SDS011;50353;51.420;5.682;2022-11-20T11:51:55;49.85;;;23.67;;
64094;SDS011;50353;51.420;5.682;2022-11-20T11:54:37;49.05;;;24.00;;
64094;SDS011;50353;51.420;5.682;2022-11-20T11:57:11;48.95;;;23.77;;
64094;SDS011;50353;51.420;5.682;2022-11-20T11:59:55;46.20;;;22.85;;
64094;SDS011;50353;51.420;5.682;2022-11-20T12:02:34;50.70;;;23.08;;
64094;SDS011;50353;51.420;5.682;2022-11-20T12:05:17;45.85;;;22.92;;
64094;SDS011;50353;51.420;5.682;2022-11-20T12:07:46;50.60;;;24.33;;
64094;SDS011;50353;51.420;5.682;2022-11-20T12:10:16;49.40;;;22.85;;
64094;SDS011;50353;51.420;5.682;2022-11-20T12:12:46;52.17;;;23.13;;
64094;SDS011;50353;51.420;5.682;2022-11-20T12:15:25;43.75;;;20.85;;
64094;SDS011;50353;51.420;5.682;2022-11-20T12:17:54;48.42;;;23.02;;
64094;SDS011;50353;51.420;5.682;2022-11-20T12:20:19;46.83;;;21.88;;
64094;SDS011;50353;51.420;5.682;2022-11-20T12:23:14;47.75;;;24.20;;
64094;SDS011;50353;51.420;5.682;2022-11-20T12:25:48;54.58;;;23.30;;
64094;SDS011;50353;51.420;5.682;2022-11-20T12:28:28;49.30;;;23.85;;
64094;SDS011;50353;51.420;5.682;2022-11-20T12:31:12;45.15;;;22.95;;
64094;SDS011;50353;51.420;5.682;2022-11-20T12:33:54;49.78;;;23.42;;
64094;SDS011;50353;51.420;5.682;2022-11-20T12:36:53;48.08;;;24.15;;
64094;SDS011;50353;51.420;5.682;2022-11-20T12:39:51;53.58;;;24.50;;
64094;SDS011;50353;51.420;5.682;2022-11-20T12:50:36;46.95;;;23.25;;
64094;SDS011;50353;51.420;5.682;2022-11-20T12:56:01;48.55;;;23.67;;
64094;SDS011;50353;51.420;5.682;2022-11-20T12:58:45;50.13;;;23.85;;
64094;SDS011;50353;51.420;5.682;2022-11-20T13:04:34;47.92;;;23.17;;
64094;SDS011;50353;51.420;5.682;2022-11-20T13:07:26;41.55;;;21.23;;
64094;SDS011;50353;51.420;5.682;2022-11-20T13:09:53;51.90;;;24.73;;
64094;SDS011;50353;51.420;5.682;2022-11-20T13:12:53;55.05;;;24.60;;
64094;SDS011;50353;51.420;5.682;2022-11-20T13:17:56;48.85;;;24.38;;
64094;SDS011;50353;51.420;5.682;2022-11-20T13:20:24;50.33;;;22.58;;
64094;SDS011;50353;51.420;5.682;2022-11-20T13:22:50;51.08;;;23.13;;
64094;SDS011;50353;51.420;5.682;2022-11-20T13:27:57;49.20;;;24.25;;
64094;SDS011;50353;51.420;5.682;2022-11-20T13:30:25;50.10;;;23.85;;
64094;SDS011;50353;51.420;5.682;2022-11-20T13:35:26;55.38;;;24.35;;
64094;SDS011;50353;51.420;5.682;2022-11-20T13:38:09;47.40;;;22.77;;
64094;SDS011;50353;51.420;5.682;2022-11-20T13:40:38;47.45;;;22.75;;
64094;SDS011;50353;51.420;5.682;2022-11-20T13:43:57;46.80;;;23.35;;
64094;SDS011;50353;51.420;5.682;2022-11-20T13:46:06;48.85;;;23.05;;
64094;SDS011;50353;51.420;5.682;2022-11-20T13:48:40;52.45;;;24.05;;
64094;SDS011;50353;51.420;5.682;2022-11-20T13:56:54;51.97;;;22.90;;
64094;SDS011;50353;51.420;5.682;2022-11-20T14:02:14;47.88;;;21.92;;
64094;SDS011;50353;51.420;5.682;2022-11-20T14:04:42;50.47;;;22.35;;
64094;SDS011;50353;51.420;5.682;2022-11-20T14:07:10;45.50;;;22.95;;
64094;SDS011;50353;51.420;5.682;2022-11-20T14:09:37;50.75;;;22.67;;
64094;SDS011;50353;51.420;5.682;2022-11-20T14:12:03;49.00;;;23.10;;
64094;SDS011;50353;51.420;5.682;2022-11-20T14:14:29;45.85;;;22.50;;
64094;SDS011;50353;51.420;5.682;2022-11-20T14:19:47;48.20;;;21.70;;
64094;SDS011;50353;51.420;5.682;2022-11-20T14:27:38;47.78;;;21.67;;
64094;SDS011;50353;51.420;5.682;2022-11-20T14:30:05;51.40;;;22.40;;
64094;SDS011;50353;51.420;5.682;2022-11-20T14:32:31;54.03;;;22.57;;
64094;SDS011;50353;51.420;5.682;2022-11-20T14:35:02;49.08;;;22.48;;
64094;SDS011;50353;51.420;5.682;2022-11-20T14:37:33;49.65;;;21.02;;
64094;SDS011;50353;51.420;5.682;2022-11-20T14:40:04;44.20;;;22.08;;
64094;SDS011;50353;51.420;5.682;2022-11-20T14:42:46;51.20;;;22.58;;
64094;SDS011;50353;51.420;5.682;2022-11-20T14:45:11;54.45;;;22.15;;
64094;SDS011;50353;51.420;5.682;2022-11-20T14:47:38;46.80;;;22.40;;
64094;SDS011;50353;51.420;5.682;2022-11-20T14:50:07;53.90;;;23.98;;
64094;SDS011;50353;51.420;5.682;2022-11-20T14:52:39;50.47;;;22.92;;
64094;SDS011;50353;51.420;5.682;2022-11-20T14:55:24;50.53;;;21.75;;
64094;SDS011;50353;51.420;5.682;2022-11-20T14:58:04;48.25;;;22.02;;
64094;SDS011;50353;51.420;5.682;2022-11-20T15:00:32;55.35;;;24.95;;
64094;SDS011;50353;51.420;5.682;2022-11-20T15:02:59;48.97;;;23.45;;
64094;SDS011;50353;51.420;5.682;2022-11-20T15:05:26;52.83;;;24.30;;
64094;SDS011;50353;51.420;5.682;2022-11-20T15:08:12;57.83;;;25.02;;
64094;SDS011;50353;51.420;5.682;2022-11-20T15:10:44;53.95;;;24.35;;
64094;SDS011;50353;51.420;5.682;2022-11-20T15:13:12;56.42;;;23.88;;
64094;SDS011;50353;51.420;5.682;2022-11-20T15:15:48;47.20;;;23.17;;
64094;SDS011;50353;51.420;5.682;2022-11-20T15:18:18;51.22;;;23.52;;
64094;SDS011;50353;51.420;5.682;2022-11-20T15:20:46;48.17;;;21.60;;
64094;SDS011;50353;51.420;5.682;2022-11-20T15:23:12;49.00;;;21.70;;
64094;SDS011;50353;51.420;5.682;2022-11-20T15:25:40;47.50;;;22.30;;
64094;SDS011;50353;51.420;5.682;2022-11-20T15:28:49;51.10;;;22.48;;
64094;SDS011;50353;51.420;5.682;2022-11-20T15:31:02;43.07;;;21.43;;
64094;SDS011;50353;51.420;5.682;2022-11-20T15:33:28;40.55;;;19.77;;
64094;SDS011;50353;51.420;5.682;2022-11-20T15:35:55;45.10;;;20.87;;
64094;SDS011;50353;51.420;5.682;2022-11-20T15:38:20;45.90;;;20.48;;
64094;SDS011;50353;51.420;5.682;2022-11-20T15:40:45;46.33;;;19.85;;
64094;SDS011;50353;51.420;5.682;2022-11-20T15:43:11;53.28;;;20.70;;
64094;SDS011;50353;51.420;5.682;2022-11-20T15:48:27;42.25;;;19.38;;
64094;SDS011;50353;51.420;5.682;2022-11-20T15:53:37;40.70;;;19.58;;
64094;SDS011;50353;51.420;5.682;2022-11-20T15:56:03;39.77;;;18.23;;
64094;SDS011;50353;51.420;5.682;2022-11-20T15:58:29;41.88;;;19.20;;
64094;SDS011;50353;51.420;5.682;2022-11-20T16:00:54;42.45;;;17.30;;
64094;SDS011;50353;51.420;5.682;2022-11-20T16:03:20;39.05;;;17.10;;
64094;SDS011;50353;51.420;5.682;2022-11-20T16:05:45;42.53;;;17.30;;
64094;SDS011;50353;51.420;5.682;2022-11-20T16:08:11;39.80;;;17.52;;
64094;SDS011;50353;51.420;5.682;2022-11-20T16:10:37;38.72;;;16.88;;
64094;SDS011;50353;51.420;5.682;2022-11-20T16:13:03;40.15;;;18.05;;
64094;SDS011;50353;51.420;5.682;2022-11-20T16:15:50;40.25;;;17.75;;
64094;SDS011;50353;51.420;5.682;2022-11-20T16:18:21;38.00;;;16.05;;
64094;SDS011;50353;51.420;5.682;2022-11-20T16:20:47;34.05;;;15.88;;